Time;durP1;ratioP1;P1;durP2;ratioP2;P2;SDS_P1;SDS_P2;PMS_P1;PMS_P2;Temp;Humidity;BMP_temperature;BMP_pressure;BME280_temperature;BME280_humidity;BME280_pressure;Samples;Min_cycle;Max_cycle;Signal;HPM_P1;HPM_P2
2023/07/14 00:00:28;;;;;;;1999.90;999.90;;;;;;;17.82;100.00;94404.50;5083661;28;20272;-66
2023/07/14 00:02:54;;;;;;;1999.90;999.90;;;;;;;17.87;100.00;94397.53;5083636;28;20161;-66
2023/07/14 00:05:25;;;;;;;1999.90;999.90;;;;;;;17.90;100.00;94404.88;5083769;28;20187;-66
2023/07/14 00:07:51;;;;;;;1999.90;999.90;;;;;;;17.89;100.00;94400.59;5083710;28;20157;-66
2023/07/14 00:10:33;;;;;;;1999.90;999.90;;;;;;;17.96;100.00;94400.22;5083713;28;20173;-65
2023/07/14 00:13:04;;;;;;;1999.90;999.90;;;;;;;18.04;100.00;94393.09;5083521;28;20229;-67
2023/07/14 00:15:36;;;;;;;1999.90;999.90;;;;;;;18.10;100.00;94399.47;5083395;28;20195;-66
2023/07/14 00:18:18;;;;;;;1999.90;999.90;;;;;;;18.12;100.00;94413.56;5085415;28;20189;-68
2023/07/14 00:20:44;;;;;;;1999.90;999.90;;;;;;;18.14;100.00;94413.88;5086874;28;20169;-68
2023/07/14 00:23:12;;;;;;;1999.90;999.90;;;;;;;18.12;100.00;94427.38;5087062;28;20187;-68
2023/07/14 00:25:38;;;;;;;1999.90;999.90;;;;;;;18.11;100.00;94425.88;5086528;28;20169;-67
2023/07/14 00:28:13;;;;;;;1999.90;999.90;;;;;;;18.12;100.00;94432.91;5086761;28;20177;-68
2023/07/14 00:30:39;;;;;;;1999.90;999.90;;;;;;;18.13;100.00;94434.44;5087008;28;20173;-68
2023/07/14 00:33:11;;;;;;;1999.90;999.90;;;;;;;18.06;100.00;94435.56;5086906;28;20192;-68
2023/07/14 00:35:36;;;;;;;1999.90;999.90;;;;;;;18.03;100.00;94433.75;5086676;28;20165;-68
2023/07/14 00:38:02;;;;;;;1999.90;999.90;;;;;;;18.01;100.00;94438.25;5086764;28;20193;-68
2023/07/14 00:40:36;;;;;;;1999.90;999.90;;;;;;;17.91;100.00;94431.25;5086277;28;20233;-67
2023/07/14 00:43:02;;;;;;;1999.90;999.90;;;;;;;17.87;100.00;94433.44;5086669;28;20212;-67
2023/07/14 00:45:31;;;;;;;1999.90;999.90;;;;;;;17.88;100.00;94421.19;5086200;28;20203;-67
2023/07/14 00:48:03;;;;;;;1999.90;999.90;;;;;;;17.85;100.00;94419.34;5086097;28;20172;-68
2023/07/14 00:50:38;;;;;;;1999.90;999.90;;;;;;;17.80;100.00;94423.53;5086628;28;20157;-66
2023/07/14 00:53:09;;;;;;;1999.90;999.90;;;;;;;17.73;100.00;94434.16;5086418;28;20228;-67
2023/07/14 00:55:44;;;;;;;1999.90;999.90;;;;;;;17.64;100.00;94425.97;5086575;28;20180;-67
2023/07/14 00:58:15;;;;;;;1999.90;999.90;;;;;;;17.62;100.00;94412.63;5086430;28;20201;-66
2023/07/14 01:01:04;;;;;;;1999.90;999.90;;;;;;;17.60;100.00;94441.94;5086089;28;20193;-68
2023/07/14 01:03:30;;;;;;;1999.90;999.90;;;;;;;17.61;100.00;94438.72;5086628;28;20212;-68
2023/07/14 01:05:59;;;;;;;1999.90;999.90;;;;;;;17.61;100.00;94443.47;5085658;28;20173;-67
2023/07/14 01:08:26;;;;;;;1999.90;999.90;;;;;;;17.59;100.00;94448.72;5085762;28;20178;-68
2023/07/14 01:10:52;;;;;;;1999.90;999.90;;;;;;;17.55;100.00;94450.91;5086437;28;20174;-68
2023/07/14 01:13:19;;;;;;;1999.90;999.90;;;;;;;17.55;100.00;94450.91;5086260;28;20169;-69
2023/07/14 01:15:45;;;;;;;1999.90;999.90;;;;;;;17.50;100.00;94470.84;5085585;28;20207;-67
2023/07/14 01:18:11;;;;;;;1999.90;999.90;;;;;;;17.49;100.00;94491.41;5085974;28;20205;-67
2023/07/14 01:20:38;;;;;;;1999.90;999.90;;;;;;;17.43;100.00;94639.59;5085940;28;20180;-67
2023/07/14 01:23:09;;;;;;;1999.90;999.90;;;;;;;17.34;100.00;94650.66;5085958;28;20169;-67
2023/07/14 01:25:38;;;;;;;1999.90;999.90;;;;;;;17.29;100.00;94728.56;5086169;28;20173;-67
2023/07/14 01:28:07;;;;;;;1999.90;999.90;;;;;;;17.24;100.00;94790.69;5084882;28;20180;-67
2023/07/14 01:30:34;;;;;;;1999.90;999.90;;;;;;;17.25;100.00;94816.25;5084939;28;20173;-67
2023/07/14 01:32:59;;;;;;;1999.90;999.90;;;;;;;17.23;100.00;94815.97;5085290;28;20169;-67
2023/07/14 01:35:36;;;;;;;1999.90;999.90;;;;;;;17.15;100.00;94809.22;5085709;28;20176;-66
2023/07/14 01:38:01;;;;;;;1999.90;999.90;;;;;;;17.11;100.00;94806.59;5085643;28;20269;-68
2023/07/14 01:40:29;;;;;;;1999.90;999.90;;;;;;;17.05;100.00;94804.94;5085616;28;20214;-67
2023/07/14 01:43:00;;;;;;;1999.90;999.90;;;;;;;17.05;100.00;94788.38;5085029;28;20181;-67
2023/07/14 01:45:33;;;;;;;1999.90;999.90;;;;;;;17.04;100.00;94782.06;5085271;28;20239;-67
2023/07/14 01:48:02;;;;;;;1999.90;999.90;;;;;;;17.05;100.00;94771.81;5085418;28;20165;-67
2023/07/14 01:50:35;;;;;;;1999.90;999.90;;;;;;;17.02;100.00;94761.69;5084854;28;20173;-67
2023/07/14 01:53:10;;;;;;;1999.90;999.90;;;;;;;16.98;100.00;94761.88;5084836;28;20227;-67
2023/07/14 01:55:38;;;;;;;1999.90;999.90;;;;;;;16.95;100.00;94754.50;5085295;28;20177;-66
2023/07/14 01:58:14;;;;;;;1999.90;999.90;;;;;;;16.90;100.00;94755.09;5084678;28;20224;-66
2023/07/14 02:00:41;;;;;;;1999.90;999.90;;;;;;;16.87;100.00;94755.25;5085245;28;20193;-65
2023/07/14 02:03:11;;;;;;;1999.90;999.90;;;;;;;16.83;100.00;94741.63;5085251;28;20177;-64
2023/07/14 02:05:38;;;;;;;1999.90;999.90;;;;;;;16.84;100.00;94745.13;5084794;28;20164;-64
2023/07/14 02:08:06;;;;;;;1999.90;999.90;;;;;;;16.80;100.00;94739.78;5084658;28;20236;-63
2023/07/14 02:10:32;;;;;;;1999.90;999.90;;;;;;;16.75;100.00;94747.91;5084499;28;20165;-65
2023/07/14 02:12:59;;;;;;;1999.90;999.90;;;;;;;16.70;100.00;94751.25;5084500;28;20165;-64
2023/07/14 02:15:32;;;;;;;1999.90;999.90;;;;;;;16.68;100.00;94759.22;5084625;28;20165;-65
2023/07/14 02:17:59;;;;;;;1999.90;999.90;;;;;;;16.66;100.00;94758.91;5085136;28;20201;-64
2023/07/14 02:20:29;;;;;;;1999.90;999.90;;;;;;;16.62;100.00;94756.31;5084289;28;20166;-65
2023/07/14 02:22:56;;;;;;;1999.90;999.90;;;;;;;16.60;100.00;94763.50;5084808;28;20161;-65
2023/07/14 02:25:26;;;;;;;1999.90;999.90;;;;;;;16.55;100.00;94756.59;5084788;28;20200;-66
2023/07/14 02:27:51;;;;;;;1999.90;999.90;;;;;;;16.51;100.00;94760.72;5084844;28;20279;-65
2023/07/14 02:30:20;;;;;;;1999.90;999.90;;;;;;;16.50;100.00;94753.69;5084139;28;20169;-65
2023/07/14 02:32:52;;;;;;;1999.90;999.90;;;;;;;16.42;100.00;94762.25;5084132;28;20231;-64
2023/07/14 02:35:33;;;;;;;1999.90;999.90;;;;;;;16.36;100.00;94772.28;5084998;28;20168;-66
2023/07/14 02:38:10;;;;;;;1999.90;999.90;;;;;;;16.28;100.00;94771.06;5084559;28;20197;-64
2023/07/14 02:40:39;;;;;;;1999.90;999.90;;;;;;;16.26;100.00;94753.44;5083865;28;20263;-64
2023/07/14 02:43:11;;;;;;;1999.90;999.90;;;;;;;16.20;100.00;94752.50;5084608;28;20174;-63
2023/07/14 02:45:46;;;;;;;1999.90;999.90;;;;;;;16.15;100.00;94756.63;5084484;28;20161;-66
2023/07/14 02:48:15;;;;;;;1999.90;999.90;;;;;;;16.13;100.00;94752.78;5084513;28;20169;-68
2023/07/14 02:50:41;;;;;;;1999.90;999.90;;;;;;;16.08;100.00;94739.59;5083851;28;20165;-70
2023/07/14 02:53:07;;;;;;;1999.90;999.90;;;;;;;16.06;100.00;94731.78;5083680;28;20248;-67
2023/07/14 02:55:32;;;;;;;1999.90;999.90;;;;;;;16.05;100.00;94735.78;5084391;28;20176;-67
2023/07/14 02:57:57;;;;;;;1999.90;999.90;;;;;;;16.02;100.00;94725.66;5083818;28;20200;-66
2023/07/14 03:00:23;;;;;;;1999.90;999.90;;;;;;;16.02;100.00;94725.66;5084340;28;20185;-66
2023/07/14 03:02:48;;;;;;;1999.90;999.90;;;;;;;16.01;100.00;94712.34;5083762;28;20176;-67
2023/07/14 03:05:13;;;;;;;1999.90;999.90;;;;;;;15.98;100.00;94716.78;5084337;28;20201;-67
2023/07/14 03:07:39;;;;;;;1999.90;999.90;;;;;;;15.93;100.00;94711.88;5084171;28;20165;-67
2023/07/14 03:10:08;;;;;;;1999.90;999.90;;;;;;;15.91;100.00;94702.50;5084239;28;20203;-67
2023/07/14 03:12:34;;;;;;;1999.90;999.90;;;;;;;15.90;100.00;94701.75;5084257;28;20165;-67
2023/07/14 03:14:59;;;;;;;1999.90;999.90;;;;;;;15.87;100.00;94702.66;5083702;28;20166;-67
2023/07/14 03:17:25;;;;;;;1999.90;999.90;;;;;;;15.83;100.00;94702.03;5083521;28;20204;-67
2023/07/14 03:19:50;;;;;;;1999.90;999.90;;;;;;;15.73;100.00;94697.72;5083595;28;20176;-67
2023/07/14 03:22:16;;;;;;;1999.90;999.90;;;;;;;15.70;100.00;94693.09;5083825;28;20249;-68
2023/07/14 03:24:41;;;;;;;1999.90;999.90;;;;;;;15.67;100.00;94683.00;5083583;28;20169;-69
2023/07/14 03:27:07;;;;;;;1999.90;999.90;;;;;;;15.66;100.00;94680.72;5084065;28;20177;-67
2023/07/14 03:29:32;;;;;;;1999.90;999.90;;;;;;;15.65;100.00;94668.16;5083572;28;20177;-68
2023/07/14 03:31:57;;;;;;;1999.90;999.90;;;;;;;15.66;100.00;94664.94;5083941;28;20215;-67
2023/07/14 03:34:23;;;;;;;1999.90;999.90;;;;;;;15.65;100.00;94657.91;5083710;28;20180;-66
2023/07/14 03:36:49;;;;;;;1999.90;999.90;;;;;;;15.65;100.00;94657.16;5082975;28;20208;-66
2023/07/14 03:39:26;;;;;;;1999.90;999.90;;;;;;;15.67;100.00;94654.72;5083499;28;20245;-66
2023/07/14 03:41:53;;;;;;;1999.90;999.90;;;;;;;15.74;100.00;94648.94;5083859;28;20169;-65
2023/07/14 03:44:19;;;;;;;1999.90;999.90;;;;;;;15.80;100.00;94647.09;5083927;28;20173;-66
2023/07/14 03:46:45;;;;;;;1999.90;999.90;;;;;;;15.85;100.00;94652.78;5083356;28;20169;-66
2023/07/14 03:49:11;;;;;;;1999.90;999.90;;;;;;;15.91;100.00;94648.22;5084215;28;20170;-66
2023/07/14 03:51:36;;;;;;;1999.90;999.90;;;;;;;16.08;100.00;94657.75;5084259;28;20165;-66
2023/07/14 03:54:02;;;;;;;1999.90;999.90;;;;;;;16.24;100.00;94654.69;5087478;28;20189;-68
2023/07/14 03:56:27;;;;;;;1999.90;999.90;;;;;;;16.47;100.00;94666.38;5086927;28;20176;-66
2023/07/14 03:58:52;;;;;;;1999.90;999.90;;;;;;;16.64;100.00;94679.41;5087097;28;20261;-65
2023/07/14 04:01:18;;;;;;;1999.90;999.90;;;;;;;16.93;100.00;94689.97;5087017;28;20169;-64
2023/07/14 04:03:44;;;;;;;1999.90;999.90;;;;;;;17.20;100.00;94718.31;5087415;28;20177;-64
2023/07/14 04:06:10;;;;;;;1999.90;999.90;;;;;;;17.43;100.00;94739.00;5086857;28;20173;-64
2023/07/14 04:08:37;;;;;;;1999.90;999.90;;;;;;;17.72;100.00;94766.84;5086887;28;20180;-64
2023/07/14 04:11:03;;;;;;;1999.90;999.90;;;;;;;17.99;100.00;94788.91;5087330;28;20169;-64
2023/07/14 04:13:30;;;;;;;1999.90;999.90;;;;;;;18.24;100.00;94821.66;5087521;28;20181;-64
2023/07/14 04:15:56;;;;;;;1999.90;999.90;;;;;;;18.40;100.00;94854.50;5086584;28;20173;-64
2023/07/14 04:18:22;;;;;;;1999.90;999.90;;;;;;;18.61;100.00;94879.16;5086958;28;20201;-64
2023/07/14 04:20:47;;;;;;;1999.90;999.90;;;;;;;18.75;100.00;94910.91;5086588;28;20173;-65
2023/07/14 04:23:13;;;;;;;1999.90;999.90;;;;;;;18.75;100.00;94939.34;5087091;28;20169;-64
2023/07/14 04:25:39;;;;;;;1999.90;999.90;;;;;;;18.99;100.00;94953.25;5086494;28;20181;-65
2023/07/14 04:28:04;;;;;;;1999.90;999.90;;;;;;;19.20;100.00;94974.38;5086818;28;20173;-65
2023/07/14 04:30:31;;;;;;;1999.90;999.90;;;;;;;19.31;100.00;94994.03;5086702;28;20207;-67
2023/07/14 04:32:57;;;;;;;1999.90;999.90;;;;;;;19.44;100.00;95011.97;5086154;28;20180;-67
2023/07/14 04:35:23;;;;;;;1999.90;999.90;;;;;;;19.60;100.00;95010.81;5086709;28;20175;-66
2023/07/14 04:37:49;;;;;;;1999.90;999.90;;;;;;;19.81;100.00;95009.00;5086267;28;20196;-67
2023/07/14 04:40:14;;;;;;;1999.90;999.90;;;;;;;19.87;100.00;94994.00;5086287;28;20169;-64
2023/07/14 04:42:39;;;;;;;1999.90;999.90;;;;;;;19.94;100.00;94988.09;5087025;28;20187;-65
2023/07/14 04:45:06;;;;;;;1999.90;999.90;;;;;;;20.14;100.00;94966.09;5086074;28;20196;-64
2023/07/14 04:47:31;;;;;;;1999.90;999.90;;;;;;;20.27;100.00;94961.03;5086147;28;20171;-64
2023/07/14 04:49:57;;;;;;;1999.90;999.90;;;;;;;20.42;100.00;94939.63;5086020;28;20173;-64
2023/07/14 04:52:22;;;;;;;1999.90;999.90;;;;;;;20.83;100.00;94918.38;5086142;28;20228;-63
2023/07/14 04:54:48;;;;;;;1999.90;999.90;;;;;;;20.86;100.00;94884.84;5086013;28;20165;-63
2023/07/14 04:57:14;;;;;;;1999.90;999.90;;;;;;;20.91;100.00;94875.09;5086361;28;20193;-63
2023/07/14 04:59:39;;;;;;;1999.90;999.90;;;;;;;20.84;100.00;94881.03;5085907;28;20251;-64
2023/07/14 05:02:05;;;;;;;1999.90;999.90;;;;;;;20.80;100.00;94892.31;5085938;28;20244;-62
2023/07/14 05:04:32;;;;;;;1999.90;999.90;;;;;;;20.93;100.00;94884.47;5084945;28;20165;-62
2023/07/14 05:06:57;;;;;;;1999.90;999.90;;;;;;;21.33;100.00;94875.44;5085644;28;20219;-62
2023/07/14 05:09:24;;;;;;;1999.90;999.90;;;;;;;21.50;100.00;94871.63;5085916;28;20169;-61
2023/07/14 05:11:49;;;;;;;1999.90;999.90;;;;;;;21.69;100.00;94889.56;5085631;28;20195;-62
2023/07/14 05:14:14;;;;;;;1999.90;999.90;;;;;;;21.83;100.00;94894.31;5085649;28;20165;-62
2023/07/14 05:16:40;;;;;;;1999.90;999.90;;;;;;;22.10;100.00;94907.75;5085893;28;20204;-62
2023/07/14 05:19:05;;;;;;;1999.90;999.90;;;;;;;22.39;100.00;94917.91;5085490;28;20176;-62
2023/07/14 05:21:31;;;;;;;1999.90;999.90;;;;;;;22.52;100.00;94987.91;5086070;28;20240;-62
2023/07/14 05:23:56;;;;;;;1999.90;999.90;;;;;;;22.66;100.00;95025.25;5085372;28;20171;-62
2023/07/14 05:26:22;;;;;;;1999.90;999.90;;;;;;;22.52;100.00;95044.34;5085723;28;20176;-61
2023/07/14 05:28:47;;;;;;;1999.90;999.90;;;;;;;22.48;100.00;95049.34;5085595;28;20169;-62
2023/07/14 05:31:13;;;;;;;1999.90;999.90;;;;;;;22.73;100.00;95086.09;5085261;28;20169;-61
2023/07/14 05:33:39;;;;;;;1999.90;999.90;;;;;;;22.94;100.00;95140.53;5085226;28;20211;-61
2023/07/14 05:36:05;;;;;;;1999.90;999.90;;;;;;;23.06;100.00;95167.25;5085027;28;20197;-61
2023/07/14 05:38:31;;;;;;;1999.90;999.90;;;;;;;23.11;100.00;95183.25;5085579;28;20271;-59
2023/07/14 05:40:56;;;;;;;1999.90;999.90;;;;;;;23.64;100.00;95214.28;5084883;28;20192;-61
2023/07/14 05:43:23;;;;;;;1999.90;999.90;;;;;;;23.52;100.00;95274.00;5085117;28;20183;-61
2023/07/14 05:45:49;;;;;;;1999.90;999.90;;;;;;;23.39;100.00;95287.50;5084716;28;20178;-61
2023/07/14 05:48:16;;;;;;;1999.90;999.90;;;;;;;23.35;100.00;95292.53;5084165;28;20206;-61
2023/07/14 05:50:46;;;;;;;1999.90;999.90;;;;;;;23.07;100.00;95302.53;5084578;28;20169;-62
2023/07/14 05:53:12;;;;;;;1999.90;999.90;;;;;;;23.19;100.00;95307.00;5084603;28;20290;-61
2023/07/14 05:55:37;;;;;;;1999.90;999.90;;;;;;;23.62;100.00;95356.22;5084673;28;20177;-61
2023/07/14 05:58:03;;;;;;;1999.90;999.90;;;;;;;23.95;100.00;95401.28;5084498;28;20271;-61
2023/07/14 06:00:29;;;;;;;1999.90;999.90;;;;;;;23.96;100.00;95427.97;5084493;28;20212;-61
2023/07/14 06:02:54;;;;;;;1999.90;999.90;;;;;;;24.52;100.00;95450.41;5084578;28;20191;-61
2023/07/14 06:05:19;;;;;;;1999.90;999.90;;;;;;;25.59;100.00;95473.97;5084323;28;20177;-60
2023/07/14 06:07:45;;;;;;;1999.90;999.90;;;;;;;26.26;100.00;95492.66;5084189;28;20176;-60
2023/07/14 06:10:12;;;;;;;1999.90;999.90;;;;;;;26.02;100.00;95506.31;5084292;28;20178;-60
2023/07/14 06:12:38;;;;;;;1999.90;999.90;;;;;;;26.62;100.00;95514.22;5084239;28;20236;-60
2023/07/14 06:15:04;;;;;;;1999.90;999.90;;;;;;;27.11;100.00;95516.38;5084243;28;20204;-58
2023/07/14 06:17:29;;;;;;;1999.90;999.90;;;;;;;26.60;100.00;95511.16;5084247;28;20204;-58
2023/07/14 06:19:55;;;;;;;1999.90;999.90;;;;;;;26.44;100.00;95525.84;5084673;28;20173;-58
2023/07/14 06:22:21;;;;;;;1999.90;999.90;;;;;;;26.89;100.00;95515.56;5084395;28;20177;-58
2023/07/14 06:24:50;;;;;;;1999.90;999.90;;;;;;;27.83;100.00;95519.22;5084044;28;20174;-58
2023/07/14 06:27:16;;;;;;;1999.90;999.90;;;;;;;28.15;100.00;95523.97;5083980;28;20173;-58
2023/07/14 06:29:43;;;;;;;1999.90;999.90;;;;;;;28.57;100.00;95524.88;5084321;28;20174;-59
2023/07/14 06:32:08;;;;;;;1999.90;999.90;;;;;;;28.84;100.00;95521.16;5084038;28;20169;-59
2023/07/14 06:34:34;;;;;;;1999.90;999.90;;;;;;;29.44;100.00;95522.81;5084047;28;20169;-58
2023/07/14 06:36:59;;;;;;;1999.90;999.90;;;;;;;29.15;100.00;95529.19;5083817;28;20211;-59
2023/07/14 06:39:25;;;;;;;1999.90;999.90;;;;;;;29.22;100.00;95523.00;5083918;28;20173;-58
2023/07/14 06:41:50;;;;;;;1999.90;999.90;;;;;;;29.98;100.00;95521.59;5084330;28;20196;-58
2023/07/14 06:44:16;;;;;;;1999.90;999.90;;;;;;;29.70;100.00;95517.50;5084710;28;20176;-58
2023/07/14 06:46:42;;;;;;;1999.90;999.90;;;;;;;29.63;100.00;95512.44;5084348;28;20173;-60
2023/07/14 06:49:07;;;;;;;1999.90;999.90;;;;;;;30.65;100.00;95504.69;5083985;28;20168;-59
2023/07/14 06:51:33;;;;;;;1999.90;999.90;;;;;;;31.12;92.37;95514.31;5083706;28;20171;-59
2023/07/14 06:53:58;;;;;;;1999.90;999.90;;;;;;;30.83;89.84;95507.56;5084337;28;20219;-60
2023/07/14 06:56:24;;;;;;;1999.90;999.90;;;;;;;31.02;91.38;95510.38;5084215;28;20240;-59
2023/07/14 06:58:49;;;;;;;1999.90;999.90;;;;;;;29.97;94.79;95508.03;5083662;28;20193;-60
2023/07/14 07:01:16;;;;;;;1999.90;999.90;;;;;;;29.53;95.95;95505.63;5083783;28;20173;-59
2023/07/14 07:03:42;;;;;;;1999.90;999.90;;;;;;;30.07;99.84;95501.50;5084159;28;20173;-60
2023/07/14 07:06:07;;;;;;;1999.90;999.90;;;;;;;30.07;95.86;95501.50;5084087;28;20173;-60
2023/07/14 07:08:33;;;;;;;1999.90;999.90;;;;;;;30.72;95.52;95504.88;5083746;28;20172;-59
2023/07/14 07:10:59;;;;;;;1999.90;999.90;;;;;;;30.02;91.07;95515.66;5083594;28;20244;-59
2023/07/14 07:13:24;;;;;;;1999.90;999.90;;;;;;;30.29;95.82;95506.16;5083703;28;20169;-58
2023/07/14 07:15:50;;;;;;;1999.90;999.90;;;;;;;30.85;88.19;95507.03;5083277;28;20195;-59
2023/07/14 07:18:19;;;;;;;1999.90;999.90;;;;;;;30.62;82.44;95512.16;5083640;28;20203;-59
2023/07/14 07:20:44;;;;;;;1999.90;999.90;;;;;;;30.59;88.76;95512.47;5083983;28;20244;-60
2023/07/14 07:23:09;;;;;;;1999.90;999.90;;;;;;;30.02;89.36;95504.38;5083492;28;20176;-59
2023/07/14 07:25:35;;;;;;;1999.90;999.90;;;;;;;29.97;95.38;95496.78;5083736;28;20184;-58
2023/07/14 07:28:01;;;;;;;1999.90;999.90;;;;;;;30.77;87.43;95500.47;5087785;28;20177;-59
2023/07/14 07:30:26;;;;;;;1999.90;999.90;;;;;;;30.94;86.62;95503.81;5087804;28;20173;-59
2023/07/14 07:32:52;;;;;;;1999.90;999.90;;;;;;;32.40;79.75;95503.19;5087529;28;20169;-59
2023/07/14 07:35:18;;;;;;;1999.90;999.90;;;;;;;30.84;81.84;95497.03;5087497;28;20180;-59
2023/07/14 07:37:44;;;;;;;1999.90;999.90;;;;;;;29.91;94.79;95498.88;5087354;28;20203;-60
2023/07/14 07:40:11;;;;;;;1999.90;999.90;;;;;;;30.24;99.12;95490.09;5087663;28;20173;-59
2023/07/14 07:42:38;;;;;;;1999.90;999.90;;;;;;;32.48;77.76;95495.56;5087818;28;20172;-60
2023/07/14 07:45:04;;;;;;;1999.90;999.90;;;;;;;32.92;75.15;95482.56;5087609;28;20169;-60
2023/07/14 07:47:30;;;;;;;1999.90;999.90;;;;;;;32.58;72.28;95496.63;5088042;28;20178;-60
2023/07/14 07:49:56;;;;;;;1999.90;999.90;;;;;;;31.94;78.85;95489.63;5087471;28;20190;-60
2023/07/14 07:52:21;;;;;;;1999.90;999.90;;;;;;;32.64;71.70;95483.16;5087251;28;20262;-61
2023/07/14 07:54:47;;;;;;;1999.90;999.90;;;;;;;32.88;74.27;95488.56;5087444;28;20204;-61
2023/07/14 07:57:12;;;;;;;1999.90;999.90;;;;;;;32.34;73.87;95485.56;5086955;28;20224;-59
2023/07/14 07:59:38;;;;;;;1999.90;999.90;;;;;;;30.05;89.38;95475.16;5086904;28;20200;-60
2023/07/14 08:02:06;;;;;;;1999.90;999.90;;;;;;;31.03;86.70;95478.03;5087165;28;20194;-60
2023/07/14 08:04:32;;;;;;;1999.90;999.90;;;;;;;31.94;79.46;95469.84;5086981;28;20169;-60
2023/07/14 08:06:57;;;;;;;1999.90;999.90;;;;;;;29.15;100.00;95475.72;5087287;28;20174;-59
2023/07/14 08:09:23;;;;;;;1999.90;999.90;;;;;;;29.33;100.00;95470.19;5086522;28;20195;-58
2023/07/14 08:11:48;;;;;;;1999.90;999.90;;;;;;;30.23;95.52;95452.66;5087067;28;20177;-60
2023/07/14 08:14:18;;;;;;;1999.90;999.90;;;;;;;31.29;86.02;95455.56;5086412;28;20195;-60
2023/07/14 08:16:45;;;;;;;1999.90;999.90;;;;;;;31.17;81.56;95457.00;5086927;28;20200;-60
2023/07/14 08:19:10;;;;;;;1999.90;999.90;;;;;;;31.28;82.20;95451.22;5086469;28;20165;-60
2023/07/14 08:21:37;;;;;;;1999.90;999.90;;;;;;;32.37;73.62;95447.69;5086510;28;20186;-60
2023/07/14 08:24:04;;;;;;;1999.90;999.90;;;;;;;31.88;74.39;95449.41;5086358;28;20177;-59
2023/07/14 08:26:32;;;;;;;1999.90;999.90;;;;;;;32.37;74.13;95439.22;5086994;28;20193;-60
2023/07/14 08:28:58;;;;;;;1999.90;999.90;;;;;;;32.66;70.25;95437.31;5085948;28;20162;-60
2023/07/14 08:31:23;;;;;;;1999.90;999.90;;;;;;;31.66;73.17;95443.38;5087005;28;20165;-60
2023/07/14 08:33:50;;;;;;;1999.90;999.90;;;;;;;31.72;73.46;95436.31;5086375;28;20161;-60
2023/07/14 08:36:15;;;;;;;1999.90;999.90;;;;;;;29.79;88.38;95446.75;5086312;28;20169;-59
2023/07/14 08:38:41;;;;;;;1999.90;999.90;;;;;;;29.25;88.56;95438.28;5084950;28;20197;-59
2023/07/14 08:41:19;;;;;;;1999.90;999.90;;;;;;;29.14;93.68;95435.56;5086694;28;20192;-58
2023/07/14 08:44:03;;;;;;;1999.90;999.90;;;;;;;28.99;92.89;95437.19;5086379;28;20218;-61
2023/07/14 08:46:55;;;;;;;1999.90;999.90;;;;;;;28.25;96.64;95440.94;5086662;28;20243;-60
2023/07/14 08:49:41;;;;;;;1999.90;999.90;;;;;;;29.40;89.43;95433.03;5086062;28;20177;-60
2023/07/14 08:52:22;;;;;;;1999.90;999.90;;;;;;;29.19;94.69;95433.97;5071550;28;20235;-67
2023/07/14 08:54:59;;;;;;;1999.90;999.90;;;;;;;29.39;97.37;95419.47;5086315;28;20173;-61
2023/07/14 08:57:26;;;;;;;1999.90;999.90;;;;;;;29.59;91.78;95428.25;5086395;28;20224;-62
2023/07/14 08:59:56;;;;;;;1999.90;999.90;;;;;;;29.82;89.75;95423.16;5085747;28;20189;-64
2023/07/14 09:02:45;;;;;;;1999.90;999.90;;;;;;;29.83;84.01;95424.69;5086591;28;20172;-64
2023/07/14 09:05:24;;;;;;;1999.90;999.90;;;;;;;30.26;80.27;95422.66;5086148;28;20170;-64
2023/07/14 09:07:49;;;;;;;1999.90;999.90;;;;;;;31.41;82.78;95420.19;5086204;28;20244;-66
2023/07/14 09:10:15;;;;;;;1999.90;999.90;;;;;;;31.52;74.18;95428.47;5085713;28;20176;-77
2023/07/14 09:12:58;;;;;;;1999.90;999.90;;;;;;;31.52;72.03;95422.81;5085722;28;20193;-62
2023/07/14 09:15:25;;;;;;;1999.90;999.90;;;;;;;30.86;79.32;95418.25;5086011;28;20165;-63
2023/07/14 09:18:12;;;;;;;1999.90;999.90;;;;;;;29.53;83.12;95419.06;5085843;28;20201;-62
2023/07/14 09:21:08;;;;;;;1999.90;999.90;;;;;;;29.73;82.53;95415.84;5086199;28;20244;-63
2023/07/14 09:23:49;;;;;;;1999.90;999.90;;;;;;;30.03;83.09;95415.72;5086028;28;20173;-64
2023/07/14 09:26:29;;;;;;;1999.90;999.90;;;;;;;29.94;81.21;95413.28;5085937;28;20206;-67
2023/07/14 09:28:56;;;;;;;1999.90;999.90;;;;;;;29.81;79.92;95411.13;5085299;28;20169;-66
2023/07/14 09:31:41;;;;;;;1999.90;999.90;;;;;;;28.97;85.11;95409.56;5085811;28;20169;-67
2023/07/14 09:34:24;;;;;;;1999.90;999.90;;;;;;;29.98;73.90;95413.75;5085690;28;20183;-65
2023/07/14 09:36:52;;;;;;;1999.90;999.90;;;;;;;30.02;73.17;95415.00;5085813;28;20197;-70
2023/07/14 09:39:26;;;;;;;1999.90;999.90;;;;;;;30.71;69.82;95412.31;5085129;28;20199;-66
2023/07/14 09:41:57;;;;;;;1999.90;999.90;;;;;;;31.23;69.26;95415.34;5085560;28;20157;-67
2023/07/14 09:44:23;;;;;;;1999.90;999.90;;;;;;;30.37;76.26;95405.59;5085628;28;20166;-67
2023/07/14 09:46:49;;;;;;;1999.90;999.90;;;;;;;30.23;74.90;95392.72;5084857;28;20169;-68
2023/07/14 09:49:27;;;;;;;1999.90;999.90;;;;;;;30.09;73.89;95403.13;5084602;28;20196;-65
2023/07/14 09:52:10;;;;;;;1999.90;999.90;;;;;;;29.58;77.32;95397.78;5084900;28;20237;-66
2023/07/14 09:54:42;;;;;;;1999.90;999.90;;;;;;;30.76;70.21;95400.19;5084780;28;20169;-66
2023/07/14 09:57:11;;;;;;;1999.90;999.90;;;;;;;31.23;62.41;95400.44;5085189;28;20193;-66
2023/07/14 09:59:54;;;;;;;1999.90;999.90;;;;;;;30.92;63.92;95402.75;5085310;28;20252;-66
2023/07/14 10:02:26;;;;;;;1999.90;999.90;;;;;;;31.47;59.96;95397.50;5085285;28;20162;-67
2023/07/14 10:04:58;;;;;;;1999.90;999.90;;;;;;;31.37;63.13;95391.50;5084238;28;20232;-67
2023/07/14 10:07:26;;;;;;;1999.90;999.90;;;;;;;31.36;59.19;95398.47;5084766;28;20161;-66
2023/07/14 10:10:07;;;;;;;1999.90;999.90;;;;;;;31.28;61.13;95391.16;5084416;28;20173;-66
2023/07/14 10:12:44;;;;;;;1999.90;999.90;;;;;;;31.66;59.16;95373.50;5084997;28;20173;-66
2023/07/14 10:15:31;;;;;;;1999.90;999.90;;;;;;;30.55;60.49;95365.31;5084853;28;20183;-70
2023/07/14 10:18:03;;;;;;;1999.90;999.90;;;;;;;31.33;61.08;95376.94;5084517;28;20207;-67
2023/07/14 10:20:31;;;;;;;1999.90;999.90;;;;;;;30.59;63.32;95377.09;5084775;28;20253;-66
2023/07/14 10:23:00;;;;;;;1999.90;999.90;;;;;;;31.26;62.05;95376.81;5084786;28;20169;-66
2023/07/14 10:25:29;;;;;;;1999.90;999.90;;;;;;;31.07;59.08;95366.31;5084065;28;20187;-67
2023/07/14 10:28:19;;;;;;;1999.90;999.90;;;;;;;30.80;60.68;95359.09;5084646;28;20244;-67
2023/07/14 10:30:58;;;;;;;1999.90;999.90;;;;;;;31.29;58.08;95370.88;5084386;28;20169;-68
2023/07/14 10:33:29;;;;;;;1999.90;999.90;;;;;;;30.60;61.17;95358.88;5084694;28;20165;-66
2023/07/14 10:36:06;;;;;;;1999.90;999.90;;;;;;;30.77;63.35;95354.50;5084462;28;20242;-67
2023/07/14 10:38:48;;;;;;;1999.90;999.90;;;;;;;30.95;63.27;95353.69;5084316;28;20268;-68
2023/07/14 10:41:15;;;;;;;1999.90;999.90;;;;;;;31.60;60.60;95344.59;5084523;28;20196;-66
2023/07/14 10:43:47;;;;;;;1999.90;999.90;;;;;;;31.04;62.92;95349.72;5083986;28;20181;-67
2023/07/14 10:46:27;;;;;;;1999.90;999.90;;;;;;;30.90;60.88;95339.69;5084418;28;20165;-65
2023/07/14 10:49:15;;;;;;;1999.90;999.90;;;;;;;31.83;57.79;95334.41;5084442;28;20240;-65
2023/07/14 10:51:56;;;;;;;1999.90;999.90;;;;;;;31.38;54.03;95335.81;5073233;28;20329;-66
2023/07/14 10:54:46;;;;;;;1999.90;999.90;;;;;;;31.69;57.24;95332.88;5084403;28;20169;-67
2023/07/14 10:57:37;;;;;;;1999.90;999.90;;;;;;;31.69;56.62;95329.28;5063447;28;20219;-65